sensor_id;sensor_type;location;lat;lon;timestamp;temperature;humidity
73777;DHT22;62088;50.240;2.696;2023-05-29T00:00:48;15.10;71.40
73777;DHT22;62088;50.240;2.696;2023-05-29T00:03:15;15.10;71.50
73777;DHT22;62088;50.240;2.696;2023-05-29T00:05:44;15.10;71.60
73777;DHT22;62088;50.240;2.696;2023-05-29T00:08:12;15.00;71.70
73777;DHT22;62088;50.240;2.696;2023-05-29T00:10:39;15.00;71.70
73777;DHT22;62088;50.240;2.696;2023-05-29T00:13:07;14.90;71.90
73777;DHT22;62088;50.240;2.696;2023-05-29T00:15:34;14.90;72.00
73777;DHT22;62088;50.240;2.696;2023-05-29T00:18:02;14.90;72.10
73777;DHT22;62088;50.240;2.696;2023-05-29T00:20:29;14.90;72.20
73777;DHT22;62088;50.240;2.696;2023-05-29T00:22:56;14.90;72.40
73777;DHT22;62088;50.240;2.696;2023-05-29T00:25:24;14.90;72.50
73777;DHT22;62088;50.240;2.696;2023-05-29T00:27:51;14.90;72.50
73777;DHT22;62088;50.240;2.696;2023-05-29T00:30:18;14.80;72.60
73777;DHT22;62088;50.240;2.696;2023-05-29T00:32:45;14.80;72.90
73777;DHT22;62088;50.240;2.696;2023-05-29T00:35:13;14.80;73.00
73777;DHT22;62088;50.240;2.696;2023-05-29T00:37:41;14.70;73.20
73777;DHT22;62088;50.240;2.696;2023-05-29T00:40:08;14.70;73.30
73777;DHT22;62088;50.240;2.696;2023-05-29T00:42:36;14.60;73.60
73777;DHT22;62088;50.240;2.696;2023-05-29T00:45:03;14.60;73.80
73777;DHT22;62088;50.240;2.696;2023-05-29T00:47:30;14.60;73.90
73777;DHT22;62088;50.240;2.696;2023-05-29T00:49:58;14.50;74.10
73777;DHT22;62088;50.240;2.696;2023-05-29T00:52:26;14.50;74.10
73777;DHT22;62088;50.240;2.696;2023-05-29T00:54:54;14.50;74.20
73777;DHT22;62088;50.240;2.696;2023-05-29T00:57:22;14.40;74.40
73777;DHT22;62088;50.240;2.696;2023-05-29T00:59:50;14.50;74.40
73777;DHT22;62088;50.240;2.696;2023-05-29T01:02:18;14.40;74.60
73777;DHT22;62088;50.240;2.696;2023-05-29T01:04:46;14.40;74.80
73777;DHT22;62088;50.240;2.696;2023-05-29T01:07:13;14.40;74.90
73777;DHT22;62088;50.240;2.696;2023-05-29T01:09:41;14.40;75.10
73777;DHT22;62088;50.240;2.696;2023-05-29T01:15:01;14.40;75.30
73777;DHT22;62088;50.240;2.696;2023-05-29T01:20:35;14.30;75.60
73777;DHT22;62088;50.240;2.696;2023-05-29T01:28:42;14.30;76.10
73777;DHT22;62088;50.240;2.696;2023-05-29T01:31:12;14.20;76.10
73777;DHT22;62088;50.240;2.696;2023-05-29T01:33:41;14.20;76.00
73777;DHT22;62088;50.240;2.696;2023-05-29T01:36:08;14.20;76.00
73777;DHT22;62088;50.240;2.696;2023-05-29T01:38:35;14.20;76.00
73777;DHT22;62088;50.240;2.696;2023-05-29T01:41:03;14.20;76.00
73777;DHT22;62088;50.240;2.696;2023-05-29T01:43:32;14.30;76.00
73777;DHT22;62088;50.240;2.696;2023-05-29T01:45:59;14.20;76.00
73777;DHT22;62088;50.240;2.696;2023-05-29T01:48:27;14.30;76.10
73777;DHT22;62088;50.240;2.696;2023-05-29T01:50:55;14.30;76.10
73777;DHT22;62088;50.240;2.696;2023-05-29T01:53:24;14.20;76.10
73777;DHT22;62088;50.240;2.696;2023-05-29T01:55:52;14.20;76.00
73777;DHT22;62088;50.240;2.696;2023-05-29T01:58:20;14.20;76.10
73777;DHT22;62088;50.240;2.696;2023-05-29T02:00:48;14.20;76.20
73777;DHT22;62088;50.240;2.696;2023-05-29T02:03:16;14.20;76.30
73777;DHT22;62088;50.240;2.696;2023-05-29T02:05:43;14.10;76.50
73777;DHT22;62088;50.240;2.696;2023-05-29T02:08:10;14.10;76.60
73777;DHT22;62088;50.240;2.696;2023-05-29T02:10:37;14.10;76.70
73777;DHT22;62088;50.240;2.696;2023-05-29T02:13:04;14.10;76.90
73777;DHT22;62088;50.240;2.696;2023-05-29T02:15:31;14.10;77.00
73777;DHT22;62088;50.240;2.696;2023-05-29T02:17:58;14.00;77.00
73777;DHT22;62088;50.240;2.696;2023-05-29T02:20:28;14.10;77.10
73777;DHT22;62088;50.240;2.696;2023-05-29T02:22:55;14.00;77.10
73777;DHT22;62088;50.240;2.696;2023-05-29T02:25:24;14.00;77.20
73777;DHT22;62088;50.240;2.696;2023-05-29T02:27:51;14.00;77.20
73777;DHT22;62088;50.240;2.696;2023-05-29T02:30:18;14.00;77.20
73777;DHT22;62088;50.240;2.696;2023-05-29T02:32:46;14.00;77.20
73777;DHT22;62088;50.240;2.696;2023-05-29T02:35:14;14.00;77.20
73777;DHT22;62088;50.240;2.696;2023-05-29T02:37:47;14.00;77.20
73777;DHT22;62088;50.240;2.696;2023-05-29T02:40:15;13.90;77.20
73777;DHT22;62088;50.240;2.696;2023-05-29T02:42:43;13.90;77.20
73777;DHT22;62088;50.240;2.696;2023-05-29T02:45:10;13.90;77.30
73777;DHT22;62088;50.240;2.696;2023-05-29T02:47:38;13.90;77.30
73777;DHT22;62088;50.240;2.696;2023-05-29T02:50:05;13.90;77.20
73777;DHT22;62088;50.240;2.696;2023-05-29T02:52:32;13.90;77.20
73777;DHT22;62088;50.240;2.696;2023-05-29T02:54:59;13.90;77.20
73777;DHT22;62088;50.240;2.696;2023-05-29T02:57:27;13.90;77.10
73777;DHT22;62088;50.240;2.696;2023-05-29T02:59:54;13.90;77.00
73777;DHT22;62088;50.240;2.696;2023-05-29T03:02:22;13.90;76.90
73777;DHT22;62088;50.240;2.696;2023-05-29T03:04:50;13.90;76.80
73777;DHT22;62088;50.240;2.696;2023-05-29T03:07:19;13.90;76.80
73777;DHT22;62088;50.240;2.696;2023-05-29T03:09:46;13.90;76.80
73777;DHT22;62088;50.240;2.696;2023-05-29T03:12:13;13.90;76.80
73777;DHT22;62088;50.240;2.696;2023-05-29T03:14:40;13.80;76.80
73777;DHT22;62088;50.240;2.696;2023-05-29T03:17:11;13.80;76.80
73777;DHT22;62088;50.240;2.696;2023-05-29T03:19:38;13.70;76.70
73777;DHT22;62088;50.240;2.696;2023-05-29T03:22:05;13.70;76.70
73777;DHT22;62088;50.240;2.696;2023-05-29T03:24:35;13.80;76.80
73777;DHT22;62088;50.240;2.696;2023-05-29T03:27:02;13.70;76.70
73777;DHT22;62088;50.240;2.696;2023-05-29T03:29:34;13.70;76.70
73777;DHT22;62088;50.240;2.696;2023-05-29T03:32:02;13.70;76.60
73777;DHT22;62088;50.240;2.696;2023-05-29T03:34:31;13.60;76.70
73777;DHT22;62088;50.240;2.696;2023-05-29T03:37:00;13.60;76.60
73777;DHT22;62088;50.240;2.696;2023-05-29T03:39:29;13.60;76.70
73777;DHT22;62088;50.240;2.696;2023-05-29T03:41:57;13.50;76.70
73777;DHT22;62088;50.240;2.696;2023-05-29T03:44:24;13.50;76.70
73777;DHT22;62088;50.240;2.696;2023-05-29T03:46:52;13.50;76.80
73777;DHT22;62088;50.240;2.696;2023-05-29T03:49:19;13.50;76.80
73777;DHT22;62088;50.240;2.696;2023-05-29T03:51:46;13.50;76.90
73777;DHT22;62088;50.240;2.696;2023-05-29T03:54:14;13.50;76.90
73777;DHT22;62088;50.240;2.696;2023-05-29T03:56:43;13.40;77.00
73777;DHT22;62088;50.240;2.696;2023-05-29T03:59:12;13.40;77.10
73777;DHT22;62088;50.240;2.696;2023-05-29T04:01:39;13.40;77.00
73777;DHT22;62088;50.240;2.696;2023-05-29T04:04:06;13.40;77.00
73777;DHT22;62088;50.240;2.696;2023-05-29T04:06:33;13.40;77.00
73777;DHT22;62088;50.240;2.696;2023-05-29T04:09:05;13.40;77.10
73777;DHT22;62088;50.240;2.696;2023-05-29T04:11:35;13.40;77.10
73777;DHT22;62088;50.240;2.696;2023-05-29T04:14:02;13.40;77.10
73777;DHT22;62088;50.240;2.696;2023-05-29T04:16:29;13.30;77.10
73777;DHT22;62088;50.240;2.696;2023-05-29T04:18:57;13.30;77.10
73777;DHT22;62088;50.240;2.696;2023-05-29T04:21:27;13.30;77.10
73777;DHT22;62088;50.240;2.696;2023-05-29T04:23:54;13.30;77.00
73777;DHT22;62088;50.240;2.696;2023-05-29T04:26:22;13.20;76.90
73777;DHT22;62088;50.240;2.696;2023-05-29T04:28:53;13.30;76.90
73777;DHT22;62088;50.240;2.696;2023-05-29T04:31:27;13.30;76.90
73777;DHT22;62088;50.240;2.696;2023-05-29T04:33:55;13.30;76.80
73777;DHT22;62088;50.240;2.696;2023-05-29T04:36:23;13.20;76.80
73777;DHT22;62088;50.240;2.696;2023-05-29T04:39:05;13.20;76.70
73777;DHT22;62088;50.240;2.696;2023-05-29T04:41:34;13.30;76.60
73777;DHT22;62088;50.240;2.696;2023-05-29T04:44:03;13.30;76.60
73777;DHT22;62088;50.240;2.696;2023-05-29T04:46:41;13.30;76.60
73777;DHT22;62088;50.240;2.696;2023-05-29T04:49:11;13.20;76.50
73777;DHT22;62088;50.240;2.696;2023-05-29T04:51:40;13.20;76.40
73777;DHT22;62088;50.240;2.696;2023-05-29T04:54:08;13.20;76.30
73777;DHT22;62088;50.240;2.696;2023-05-29T04:56:39;13.20;76.30
73777;DHT22;62088;50.240;2.696;2023-05-29T04:59:12;13.20;76.30
73777;DHT22;62088;50.240;2.696;2023-05-29T05:01:39;13.20;76.30
73777;DHT22;62088;50.240;2.696;2023-05-29T05:04:10;13.20;76.30
73777;DHT22;62088;50.240;2.696;2023-05-29T05:06:37;13.20;76.20
73777;DHT22;62088;50.240;2.696;2023-05-29T05:09:06;13.20;76.10
73777;DHT22;62088;50.240;2.696;2023-05-29T05:11:33;13.30;75.90
73777;DHT22;62088;50.240;2.696;2023-05-29T05:14:00;13.20;75.90
73777;DHT22;62088;50.240;2.696;2023-05-29T05:16:29;13.20;75.90
73777;DHT22;62088;50.240;2.696;2023-05-29T05:18:57;13.20;76.00
73777;DHT22;62088;50.240;2.696;2023-05-29T05:21:24;13.20;75.80
73777;DHT22;62088;50.240;2.696;2023-05-29T05:23:53;13.20;75.80
73777;DHT22;62088;50.240;2.696;2023-05-29T05:26:26;13.20;75.70
73777;DHT22;62088;50.240;2.696;2023-05-29T05:28:54;13.20;75.60
73777;DHT22;62088;50.240;2.696;2023-05-29T05:31:25;13.20;75.70
73777;DHT22;62088;50.240;2.696;2023-05-29T05:33:52;13.20;75.70
73777;DHT22;62088;50.240;2.696;2023-05-29T05:36:19;13.30;75.70
73777;DHT22;62088;50.240;2.696;2023-05-29T05:38:54;13.20;75.70
73777;DHT22;62088;50.240;2.696;2023-05-29T05:41:22;13.30;75.60
73777;DHT22;62088;50.240;2.696;2023-05-29T05:43:50;13.30;75.30
73777;DHT22;62088;50.240;2.696;2023-05-29T05:46:37;13.30;74.80
73777;DHT22;62088;50.240;2.696;2023-05-29T05:49:05;13.30;74.70
73777;DHT22;62088;50.240;2.696;2023-05-29T05:51:32;13.30;74.50
73777;DHT22;62088;50.240;2.696;2023-05-29T05:53:59;13.30;74.50
73777;DHT22;62088;50.240;2.696;2023-05-29T05:56:27;13.30;74.20
73777;DHT22;62088;50.240;2.696;2023-05-29T05:58:54;13.30;73.70
73777;DHT22;62088;50.240;2.696;2023-05-29T06:01:21;13.40;73.10
73777;DHT22;62088;50.240;2.696;2023-05-29T06:03:50;13.40;73.00
73777;DHT22;62088;50.240;2.696;2023-05-29T06:06:17;13.40;73.10
73777;DHT22;62088;50.240;2.696;2023-05-29T06:08:46;13.40;73.10
73777;DHT22;62088;50.240;2.696;2023-05-29T06:11:15;13.40;72.70
73777;DHT22;62088;50.240;2.696;2023-05-29T06:13:45;13.40;72.30
73777;DHT22;62088;50.240;2.696;2023-05-29T06:16:19;13.40;72.20
73777;DHT22;62088;50.240;2.696;2023-05-29T06:18:46;13.50;71.70
73777;DHT22;62088;50.240;2.696;2023-05-29T06:21:13;13.40;71.60
73777;DHT22;62088;50.240;2.696;2023-05-29T06:23:48;13.50;70.90
73777;DHT22;62088;50.240;2.696;2023-05-29T06:26:15;13.50;70.50
73777;DHT22;62088;50.240;2.696;2023-05-29T06:28:42;13.50;70.40
73777;DHT22;62088;50.240;2.696;2023-05-29T06:31:10;13.60;70.20
73777;DHT22;62088;50.240;2.696;2023-05-29T06:33:37;13.60;70.30
73777;DHT22;62088;50.240;2.696;2023-05-29T06:36:05;13.60;70.10
73777;DHT22;62088;50.240;2.696;2023-05-29T06:38:35;13.70;69.30
73777;DHT22;62088;50.240;2.696;2023-05-29T06:41:02;13.70;68.60
73777;DHT22;62088;50.240;2.696;2023-05-29T06:43:30;13.70;69.10
73777;DHT22;62088;50.240;2.696;2023-05-29T06:45:57;13.80;69.20
73777;DHT22;62088;50.240;2.696;2023-05-29T06:48:24;13.90;69.40
73777;DHT22;62088;50.240;2.696;2023-05-29T06:50:51;13.90;69.40
73777;DHT22;62088;50.240;2.696;2023-05-29T06:53:38;13.90;68.30
73777;DHT22;62088;50.240;2.696;2023-05-29T06:56:06;14.00;68.30
73777;DHT22;62088;50.240;2.696;2023-05-29T06:58:34;14.00;68.20
73777;DHT22;62088;50.240;2.696;2023-05-29T07:01:02;14.10;67.40
73777;DHT22;62088;50.240;2.696;2023-05-29T07:03:35;14.10;67.70
73777;DHT22;62088;50.240;2.696;2023-05-29T07:06:04;14.20;68.20
73777;DHT22;62088;50.240;2.696;2023-05-29T07:08:33;14.20;68.30
73777;DHT22;62088;50.240;2.696;2023-05-29T07:11:01;14.30;68.30
73777;DHT22;62088;50.240;2.696;2023-05-29T07:13:28;14.30;67.80
73777;DHT22;62088;50.240;2.696;2023-05-29T07:15:55;14.40;67.00
73777;DHT22;62088;50.240;2.696;2023-05-29T07:18:31;14.40;67.10
73777;DHT22;62088;50.240;2.696;2023-05-29T07:21:00;14.40;67.20
73777;DHT22;62088;50.240;2.696;2023-05-29T07:23:29;14.50;67.20
73777;DHT22;62088;50.240;2.696;2023-05-29T07:25:56;14.60;67.30
73777;DHT22;62088;50.240;2.696;2023-05-29T07:28:27;14.60;67.40
73777;DHT22;62088;50.240;2.696;2023-05-29T07:30:54;14.70;67.20
73777;DHT22;62088;50.240;2.696;2023-05-29T07:33:23;14.70;66.80
73777;DHT22;62088;50.240;2.696;2023-05-29T07:35:52;14.80;66.50
73777;DHT22;62088;50.240;2.696;2023-05-29T07:38:19;14.90;66.80
73777;DHT22;62088;50.240;2.696;2023-05-29T07:40:48;14.90;67.00
73777;DHT22;62088;50.240;2.696;2023-05-29T07:43:26;15.00;67.10
73777;DHT22;62088;50.240;2.696;2023-05-29T07:45:58;15.00;66.80
73777;DHT22;62088;50.240;2.696;2023-05-29T07:48:25;15.10;67.00
73777;DHT22;62088;50.240;2.696;2023-05-29T07:50:52;15.20;66.80
73777;DHT22;62088;50.240;2.696;2023-05-29T07:53:20;15.20;66.60
73777;DHT22;62088;50.240;2.696;2023-05-29T07:55:48;15.40;66.80
73777;DHT22;62088;50.240;2.696;2023-05-29T07:58:16;15.40;66.40
73777;DHT22;62088;50.240;2.696;2023-05-29T08:00:44;15.50;66.40
73777;DHT22;62088;50.240;2.696;2023-05-29T08:03:13;15.60;66.40
73777;DHT22;62088;50.240;2.696;2023-05-29T08:06:03;15.70;66.30
73777;DHT22;62088;50.240;2.696;2023-05-29T08:08:32;15.80;65.80
73777;DHT22;62088;50.240;2.696;2023-05-29T08:10:59;15.90;65.00
73777;DHT22;62088;50.240;2.696;2023-05-29T08:13:29;15.90;65.00
73777;DHT22;62088;50.240;2.696;2023-05-29T08:15:56;16.00;64.00
73777;DHT22;62088;50.240;2.696;2023-05-29T08:18:25;16.00;63.50
73777;DHT22;62088;50.240;2.696;2023-05-29T08:20:52;16.20;63.60
73777;DHT22;62088;50.240;2.696;2023-05-29T08:23:20;16.20;63.00
73777;DHT22;62088;50.240;2.696;2023-05-29T08:25:47;16.20;62.50
73777;DHT22;62088;50.240;2.696;2023-05-29T08:28:15;16.30;62.90
73777;DHT22;62088;50.240;2.696;2023-05-29T08:30:42;16.30;63.00
73777;DHT22;62088;50.240;2.696;2023-05-29T08:33:09;16.40;63.20
73777;DHT22;62088;50.240;2.696;2023-05-29T08:35:36;16.50;63.30
73777;DHT22;62088;50.240;2.696;2023-05-29T08:38:03;16.60;63.40
73777;DHT22;62088;50.240;2.696;2023-05-29T08:40:30;16.70;63.40
73777;DHT22;62088;50.240;2.696;2023-05-29T08:45:34;16.90;61.70
73777;DHT22;62088;50.240;2.696;2023-05-29T08:48:02;16.90;62.00
73777;DHT22;62088;50.240;2.696;2023-05-29T08:50:30;17.00;61.20
73777;DHT22;62088;50.240;2.696;2023-05-29T08:52:57;17.10;61.20
73777;DHT22;62088;50.240;2.696;2023-05-29T08:55:24;17.20;61.00
73777;DHT22;62088;50.240;2.696;2023-05-29T08:57:51;17.30;60.10
73777;DHT22;62088;50.240;2.696;2023-05-29T09:00:19;17.30;59.00
73777;DHT22;62088;50.240;2.696;2023-05-29T09:02:49;17.40;59.70
73777;DHT22;62088;50.240;2.696;2023-05-29T09:05:16;17.40;60.10
73777;DHT22;62088;50.240;2.696;2023-05-29T09:07:43;17.50;60.50
73777;DHT22;62088;50.240;2.696;2023-05-29T09:10:11;17.60;60.40
73777;DHT22;62088;50.240;2.696;2023-05-29T09:12:38;17.70;60.20
73777;DHT22;62088;50.240;2.696;2023-05-29T09:15:17;17.80;59.50
73777;DHT22;62088;50.240;2.696;2023-05-29T09:17:56;17.90;59.50
73777;DHT22;62088;50.240;2.696;2023-05-29T09:20:25;17.90;60.20
73777;DHT22;62088;50.240;2.696;2023-05-29T09:25:23;18.20;59.00
73777;DHT22;62088;50.240;2.696;2023-05-29T09:27:55;18.30;58.90
73777;DHT22;62088;50.240;2.696;2023-05-29T09:33:02;18.40;59.10
73777;DHT22;62088;50.240;2.696;2023-05-29T09:38:12;18.70;59.60
73777;DHT22;62088;50.240;2.696;2023-05-29T09:40:54;18.80;58.90
73777;DHT22;62088;50.240;2.696;2023-05-29T09:43:25;18.90;58.10
73777;DHT22;62088;50.240;2.696;2023-05-29T09:45:52;19.00;58.00
73777;DHT22;62088;50.240;2.696;2023-05-29T09:48:23;19.00;57.60
73777;DHT22;62088;50.240;2.696;2023-05-29T09:50:50;19.10;56.40
73777;DHT22;62088;50.240;2.696;2023-05-29T09:53:25;19.10;55.30
73777;DHT22;62088;50.240;2.696;2023-05-29T09:55:54;19.20;56.40
73777;DHT22;62088;50.240;2.696;2023-05-29T09:58:22;19.30;57.30
73777;DHT22;62088;50.240;2.696;2023-05-29T10:00:51;19.40;57.80
73777;DHT22;62088;50.240;2.696;2023-05-29T10:03:19;19.50;57.60
73777;DHT22;62088;50.240;2.696;2023-05-29T10:05:54;19.60;57.20
73777;DHT22;62088;50.240;2.696;2023-05-29T10:08:32;19.80;56.70
73777;DHT22;62088;50.240;2.696;2023-05-29T10:11:03;19.90;57.10
73777;DHT22;62088;50.240;2.696;2023-05-29T10:13:42;19.90;56.50
73777;DHT22;62088;50.240;2.696;2023-05-29T10:16:15;20.00;56.40
73777;DHT22;62088;50.240;2.696;2023-05-29T10:18:51;20.10;56.50
73777;DHT22;62088;50.240;2.696;2023-05-29T10:21:21;20.30;56.20
73777;DHT22;62088;50.240;2.696;2023-05-29T10:23:50;20.40;55.20
73777;DHT22;62088;50.240;2.696;2023-05-29T10:26:23;20.40;55.00
73777;DHT22;62088;50.240;2.696;2023-05-29T10:29:13;20.50;55.20
73777;DHT22;62088;50.240;2.696;2023-05-29T10:37:33;20.60;54.40
73777;DHT22;62088;50.240;2.696;2023-05-29T10:40:07;20.80;55.40
73777;DHT22;62088;50.240;2.696;2023-05-29T10:42:49;20.90;55.30
73777;DHT22;62088;50.240;2.696;2023-05-29T10:53:09;21.00;53.20
73777;DHT22;62088;50.240;2.696;2023-05-29T10:55:40;21.10;54.00
73777;DHT22;62088;50.240;2.696;2023-05-29T10:58:09;21.10;53.90
73777;DHT22;62088;50.240;2.696;2023-05-29T11:00:42;21.10;53.00
73777;DHT22;62088;50.240;2.696;2023-05-29T11:03:10;21.20;52.90
73777;DHT22;62088;50.240;2.696;2023-05-29T11:11:02;21.40;53.60
73777;DHT22;62088;50.240;2.696;2023-05-29T11:13:34;21.50;53.00
73777;DHT22;62088;50.240;2.696;2023-05-29T11:18:50;21.60;53.10
73777;DHT22;62088;50.240;2.696;2023-05-29T11:24:26;21.70;53.30
73777;DHT22;62088;50.240;2.696;2023-05-29T11:26:56;21.80;51.40
73777;DHT22;62088;50.240;2.696;2023-05-29T11:29:27;21.80;52.00
73777;DHT22;62088;50.240;2.696;2023-05-29T11:32:03;21.80;52.50
73777;DHT22;62088;50.240;2.696;2023-05-29T11:34:32;21.80;52.80
73777;DHT22;62088;50.240;2.696;2023-05-29T11:37:01;21.90;52.50
73777;DHT22;62088;50.240;2.696;2023-05-29T11:39:29;21.90;51.60
73777;DHT22;62088;50.240;2.696;2023-05-29T11:41:57;21.90;52.10
73777;DHT22;62088;50.240;2.696;2023-05-29T11:44:25;22.00;51.90
73777;DHT22;62088;50.240;2.696;2023-05-29T11:47:03;22.00;51.70
73777;DHT22;62088;50.240;2.696;2023-05-29T11:49:35;22.10;50.90
73777;DHT22;62088;50.240;2.696;2023-05-29T11:52:10;22.00;50.60
73777;DHT22;62088;50.240;2.696;2023-05-29T11:54:45;22.10;51.10
73777;DHT22;62088;50.240;2.696;2023-05-29T11:57:17;22.10;51.60
73777;DHT22;62088;50.240;2.696;2023-05-29T11:59:44;22.20;52.30
73777;DHT22;62088;50.240;2.696;2023-05-29T12:02:12;22.30;51.70
73777;DHT22;62088;50.240;2.696;2023-05-29T12:04:39;22.30;52.20
73777;DHT22;62088;50.240;2.696;2023-05-29T12:07:18;22.40;51.50
73777;DHT22;62088;50.240;2.696;2023-05-29T12:09:45;22.40;50.80
73777;DHT22;62088;50.240;2.696;2023-05-29T12:12:14;22.40;51.00
73777;DHT22;62088;50.240;2.696;2023-05-29T12:14:41;22.50;51.70
73777;DHT22;62088;50.240;2.696;2023-05-29T12:17:08;22.60;52.10
73777;DHT22;62088;50.240;2.696;2023-05-29T12:19:36;22.70;51.10
73777;DHT22;62088;50.240;2.696;2023-05-29T12:22:03;22.70;49.00
73777;DHT22;62088;50.240;2.696;2023-05-29T12:24:30;22.70;49.70
73777;DHT22;62088;50.240;2.696;2023-05-29T12:27:09;22.70;49.70
73777;DHT22;62088;50.240;2.696;2023-05-29T12:29:36;22.70;49.40
73777;DHT22;62088;50.240;2.696;2023-05-29T12:32:03;22.80;49.80
73777;DHT22;62088;50.240;2.696;2023-05-29T12:34:34;22.80;48.90
73777;DHT22;62088;50.240;2.696;2023-05-29T12:37:09;22.70;48.70
73777;DHT22;62088;50.240;2.696;2023-05-29T12:39:40;22.80;49.60
73777;DHT22;62088;50.240;2.696;2023-05-29T12:42:07;22.80;50.40
73777;DHT22;62088;50.240;2.696;2023-05-29T12:44:37;22.90;50.70
73777;DHT22;62088;50.240;2.696;2023-05-29T12:47:05;22.90;49.40
73777;DHT22;62088;50.240;2.696;2023-05-29T12:49:38;22.90;48.10
73777;DHT22;62088;50.240;2.696;2023-05-29T12:52:06;22.90;47.80
73777;DHT22;62088;50.240;2.696;2023-05-29T12:54:38;22.80;47.70
73777;DHT22;62088;50.240;2.696;2023-05-29T12:57:06;22.90;48.70
73777;DHT22;62088;50.240;2.696;2023-05-29T12:59:33;22.90;49.60
73777;DHT22;62088;50.240;2.696;2023-05-29T13:02:00;22.90;50.10
73777;DHT22;62088;50.240;2.696;2023-05-29T13:04:27;23.00;50.60
73777;DHT22;62088;50.240;2.696;2023-05-29T13:06:54;23.10;50.60
73777;DHT22;62088;50.240;2.696;2023-05-29T13:09:22;23.20;50.30
73777;DHT22;62088;50.240;2.696;2023-05-29T13:11:49;23.20;49.80
73777;DHT22;62088;50.240;2.696;2023-05-29T13:14:16;23.20;48.20
73777;DHT22;62088;50.240;2.696;2023-05-29T13:16:43;23.20;48.00
73777;DHT22;62088;50.240;2.696;2023-05-29T13:19:10;23.10;48.00
73777;DHT22;62088;50.240;2.696;2023-05-29T13:21:37;23.20;48.70
73777;DHT22;62088;50.240;2.696;2023-05-29T13:24:04;23.10;48.10
73777;DHT22;62088;50.240;2.696;2023-05-29T13:26:31;23.10;47.00
73777;DHT22;62088;50.240;2.696;2023-05-29T13:28:58;23.10;47.20
73777;DHT22;62088;50.240;2.696;2023-05-29T13:31:26;23.00;48.00
73777;DHT22;62088;50.240;2.696;2023-05-29T13:33:53;23.10;48.90
73777;DHT22;62088;50.240;2.696;2023-05-29T13:36:20;23.10;49.40
73777;DHT22;62088;50.240;2.696;2023-05-29T13:38:47;23.20;49.40
73777;DHT22;62088;50.240;2.696;2023-05-29T13:41:14;23.20;49.30
73777;DHT22;62088;50.240;2.696;2023-05-29T13:43:41;23.30;49.00
73777;DHT22;62088;50.240;2.696;2023-05-29T13:46:12;23.30;48.30
73777;DHT22;62088;50.240;2.696;2023-05-29T13:48:39;23.40;47.70
73777;DHT22;62088;50.240;2.696;2023-05-29T13:51:06;23.40;46.90
73777;DHT22;62088;50.240;2.696;2023-05-29T13:53:33;23.40;47.60
73777;DHT22;62088;50.240;2.696;2023-05-29T13:56:00;23.30;46.70
73777;DHT22;62088;50.240;2.696;2023-05-29T13:58:27;23.30;46.90
73777;DHT22;62088;50.240;2.696;2023-05-29T14:00:54;23.40;48.30
73777;DHT22;62088;50.240;2.696;2023-05-29T14:03:22;23.40;47.00
73777;DHT22;62088;50.240;2.696;2023-05-29T14:05:52;23.40;47.40
73777;DHT22;62088;50.240;2.696;2023-05-29T14:08:20;23.40;47.70
73777;DHT22;62088;50.240;2.696;2023-05-29T14:10:47;23.40;47.50
73777;DHT22;62088;50.240;2.696;2023-05-29T14:13:14;23.40;47.50
73777;DHT22;62088;50.240;2.696;2023-05-29T14:15:41;23.40;47.50
73777;DHT22;62088;50.240;2.696;2023-05-29T14:18:08;23.40;47.70
73777;DHT22;62088;50.240;2.696;2023-05-29T14:20:36;23.30;45.90
73777;DHT22;62088;50.240;2.696;2023-05-29T14:23:03;23.30;46.10
73777;DHT22;62088;50.240;2.696;2023-05-29T14:25:30;23.30;45.80
73777;DHT22;62088;50.240;2.696;2023-05-29T14:27:57;23.20;46.00
73777;DHT22;62088;50.240;2.696;2023-05-29T14:30:24;23.20;46.20
73777;DHT22;62088;50.240;2.696;2023-05-29T14:32:51;23.20;47.30
73777;DHT22;62088;50.240;2.696;2023-05-29T14:35:18;23.30;48.30
73777;DHT22;62088;50.240;2.696;2023-05-29T14:37:45;23.30;47.40
73777;DHT22;62088;50.240;2.696;2023-05-29T14:40:12;23.30;47.40
73777;DHT22;62088;50.240;2.696;2023-05-29T14:42:39;23.30;47.00
73777;DHT22;62088;50.240;2.696;2023-05-29T14:45:07;23.30;47.30
73777;DHT22;62088;50.240;2.696;2023-05-29T14:47:35;23.20;47.00
73777;DHT22;62088;50.240;2.696;2023-05-29T14:50:02;23.30;47.60
73777;DHT22;62088;50.240;2.696;2023-05-29T14:52:29;23.30;48.50
73777;DHT22;62088;50.240;2.696;2023-05-29T14:54:56;23.30;48.90
73777;DHT22;62088;50.240;2.696;2023-05-29T14:57:23;23.40;48.80
73777;DHT22;62088;50.240;2.696;2023-05-29T14:59:51;23.40;48.50
73777;DHT22;62088;50.240;2.696;2023-05-29T15:02:18;23.40;48.30
73777;DHT22;62088;50.240;2.696;2023-05-29T15:04:45;23.40;48.30
73777;DHT22;62088;50.240;2.696;2023-05-29T15:07:12;23.40;48.30
73777;DHT22;62088;50.240;2.696;2023-05-29T15:09:39;23.40;48.50
73777;DHT22;62088;50.240;2.696;2023-05-29T15:12:07;23.50;48.40
73777;DHT22;62088;50.240;2.696;2023-05-29T15:14:35;23.50;48.90
73777;DHT22;62088;50.240;2.696;2023-05-29T15:17:03;23.50;48.30
73777;DHT22;62088;50.240;2.696;2023-05-29T15:19:31;23.50;47.40
73777;DHT22;62088;50.240;2.696;2023-05-29T15:21:58;23.50;48.00
73777;DHT22;62088;50.240;2.696;2023-05-29T15:24:25;23.40;47.00
73777;DHT22;62088;50.240;2.696;2023-05-29T15:26:52;23.40;47.20
73777;DHT22;62088;50.240;2.696;2023-05-29T15:29:20;23.40;47.70
73777;DHT22;62088;50.240;2.696;2023-05-29T15:31:47;23.40;48.00
73777;DHT22;62088;50.240;2.696;2023-05-29T15:34:14;23.40;48.00
73777;DHT22;62088;50.240;2.696;2023-05-29T15:36:41;23.40;47.40
73777;DHT22;62088;50.240;2.696;2023-05-29T15:39:08;23.40;47.70
73777;DHT22;62088;50.240;2.696;2023-05-29T15:41:35;23.40;47.70
73777;DHT22;62088;50.240;2.696;2023-05-29T15:44:02;23.50;48.30
73777;DHT22;62088;50.240;2.696;2023-05-29T15:46:30;23.40;47.70
73777;DHT22;62088;50.240;2.696;2023-05-29T15:48:57;23.40;47.60
73777;DHT22;62088;50.240;2.696;2023-05-29T15:51:24;23.40;48.10
73777;DHT22;62088;50.240;2.696;2023-05-29T15:53:53;23.40;48.10
73777;DHT22;62088;50.240;2.696;2023-05-29T15:56:20;23.40;48.00
73777;DHT22;62088;50.240;2.696;2023-05-29T15:58:54;23.40;48.20
73777;DHT22;62088;50.240;2.696;2023-05-29T16:01:21;23.40;47.40
73777;DHT22;62088;50.240;2.696;2023-05-29T16:03:48;23.30;47.30
73777;DHT22;62088;50.240;2.696;2023-05-29T16:06:15;23.30;47.90
73777;DHT22;62088;50.240;2.696;2023-05-29T16:08:44;23.30;47.90
73777;DHT22;62088;50.240;2.696;2023-05-29T16:11:11;23.20;47.10
73777;DHT22;62088;50.240;2.696;2023-05-29T16:13:38;23.20;46.70
73777;DHT22;62088;50.240;2.696;2023-05-29T16:16:05;23.10;46.60
73777;DHT22;62088;50.240;2.696;2023-05-29T16:18:32;23.10;46.90
73777;DHT22;62088;50.240;2.696;2023-05-29T16:20:59;23.10;47.10
73777;DHT22;62088;50.240;2.696;2023-05-29T16:23:26;23.00;47.30
73777;DHT22;62088;50.240;2.696;2023-05-29T16:25:54;22.90;47.40